Time;durP1;ratioP1;P1;durP2;ratioP2;P2;SDS_P1;SDS_P2;PMS_P1;PMS_P2;Temp;Humidity;BMP_temperature;BMP_pressure;BME280_temperature;BME280_humidity;BME280_pressure;Samples;Min_cycle;Max_cycle;Signal;HPM_P1;HPM_P2
2023/12/21 00:00:31;;;;;;;0.80;0.70;;;6.90;99.90;;;7.14;100.00;97661.59;5051262;28;20867;-78
2023/12/21 00:03:00;;;;;;;1.57;0.90;;;6.70;99.90;;;7.13;100.00;97646.97;5049580;28;20476;-78
2023/12/21 00:05:28;;;;;;;1.10;0.80;;;6.70;99.90;;;7.14;100.00;97635.59;5051748;28;20927;-78
2023/12/21 00:07:57;;;;;;;0.90;0.70;;;6.80;99.90;;;7.16;100.00;97631.00;5051758;28;20500;-79
2023/12/21 00:10:26;;;;;;;1.00;0.70;;;6.80;99.90;;;7.17;100.00;97643.03;5052072;28;20519;-78
2023/12/21 00:12:56;;;;;;;63.23;26.80;;;6.80;99.90;;;7.19;100.00;97625.47;5051608;28;20568;-79
2023/12/21 00:15:24;;;;;;;0.90;0.90;;;6.80;99.90;;;7.18;100.00;97621.25;5053444;28;20492;-78
2023/12/21 00:17:53;;;;;;;0.80;0.80;;;6.90;99.90;;;7.19;100.00;97614.25;5053627;28;20551;-79
2023/12/21 00:20:21;;;;;;;0.70;0.60;;;6.70;99.90;;;7.20;100.00;97611.47;5053178;28;20464;-79
2023/12/21 00:22:50;;;;;;;0.80;0.70;;;6.80;99.90;;;7.20;100.00;97608.06;5052743;28;20464;-79
2023/12/21 00:25:17;;;;;;;0.80;0.60;;;6.80;99.90;;;7.19;100.00;97615.06;5052268;28;20465;-79
2023/12/21 00:27:46;;;;;;;0.70;0.67;;;6.90;99.90;;;7.18;100.00;97594.44;5053197;28;20461;-78
2023/12/21 00:30:17;;;;;;;0.90;0.60;;;6.80;99.90;;;7.20;100.00;97580.28;5052871;28;20457;-78
2023/12/21 00:32:45;;;;;;;1.50;0.70;;;6.90;99.90;;;7.20;100.00;97575.06;5053552;28;20510;-78
2023/12/21 00:35:14;;;;;;;0.90;0.70;;;6.80;99.90;;;7.23;100.00;97579.91;5053543;28;20460;-78
2023/12/21 00:37:43;;;;;;;0.80;0.80;;;6.80;99.90;;;7.22;100.00;97574.91;5054445;28;20464;-79
2023/12/21 00:40:13;;;;;;;2.50;0.80;;;6.80;99.90;;;7.22;100.00;97573.09;5053976;28;20461;-79
2023/12/21 00:42:42;;;;;;;0.70;0.70;;;6.80;99.90;;;7.22;100.00;97567.91;5052825;28;20503;-78
2023/12/21 00:45:11;;;;;;;0.80;0.70;;;6.90;99.90;;;7.26;100.00;97558.75;5053929;28;20462;-78
2023/12/21 00:47:41;;;;;;;0.70;0.70;;;6.80;99.90;;;7.27;100.00;97552.59;5053476;28;20453;-78
2023/12/21 00:50:10;;;;;;;0.80;0.70;;;6.80;99.90;;;7.29;100.00;97535.00;5053317;28;20844;-78
2023/12/21 00:52:39;;;;;;;0.70;0.70;;;6.90;99.90;;;7.31;100.00;97540.03;5055847;28;20461;-79
2023/12/21 00:55:09;;;;;;;0.90;0.90;;;6.80;99.90;;;7.29;100.00;97547.22;5053675;28;20503;-79
2023/12/21 00:57:38;;;;;;;0.70;0.70;;;6.90;99.90;;;7.27;100.00;97538.78;5051795;28;20974;-78
2023/12/21 01:00:08;;;;;;;0.70;0.70;;;7.00;99.90;;;7.26;100.00;97540.56;5053283;28;20474;-78
2023/12/21 01:02:38;;;;;;;1.00;0.70;;;7.00;99.90;;;7.30;100.00;97557.41;5052637;28;20975;-79
2023/12/21 01:05:09;;;;;;;0.90;0.80;;;7.00;99.90;;;7.31;100.00;97548.66;5053970;28;20480;-78
2023/12/21 01:07:37;;;;;;;0.93;0.70;;;7.00;99.90;;;7.31;100.00;97553.84;5052913;28;20474;-78
2023/12/21 01:10:07;;;;;;;1.00;0.87;;;7.00;99.90;;;7.29;100.00;97557.63;5051379;28;20544;-78
2023/12/21 01:12:35;;;;;;;0.70;0.70;;;7.00;99.90;;;7.30;100.00;97557.41;5052752;28;20461;-79
2023/12/21 01:15:05;;;;;;;2.30;1.30;;;7.00;99.90;;;7.32;100.00;97558.06;5053712;28;20501;-79
2023/12/21 01:17:35;;;;;;;0.70;0.60;;;7.00;99.90;;;7.35;100.00;97559.50;5053275;28;20462;-79
2023/12/21 01:20:03;;;;;;;4.60;0.70;;;6.90;99.90;;;7.36;100.00;97559.31;5052180;28;21008;-78
2023/12/21 01:22:33;;;;;;;0.70;0.60;;;6.90;99.90;;;7.37;100.00;97540.13;5052100;28;20543;-80
2023/12/21 01:25:02;;;;;;;1.10;0.80;;;7.00;99.90;;;7.37;100.00;97550.53;5051349;28;20465;-79
2023/12/21 01:27:31;;;;;;;0.70;0.60;;;7.00;99.90;;;7.37;100.00;97534.91;5052596;28;20465;-78
2023/12/21 01:30:00;;;;;;;1.40;0.70;;;6.90;99.90;;;7.39;100.00;97532.16;5053186;28;20580;-78
2023/12/21 01:32:29;;;;;;;0.70;0.60;;;6.90;99.90;;;7.39;100.00;97527.72;5055768;28;20460;-78
2023/12/21 01:34:57;;;;;;;0.70;0.60;;;7.00;99.90;;;7.40;100.00;97524.16;5050284;28;21226;-79
2023/12/21 01:37:26;;;;;;;0.80;0.70;;;7.00;99.90;;;7.38;100.00;97518.34;5053592;28;20527;-78
2023/12/21 01:39:56;;;;;;;0.80;0.70;;;6.80;99.90;;;7.40;100.00;97508.53;5052175;28;20460;-78
2023/12/21 01:42:25;;;;;;;0.80;0.70;;;7.10;99.90;;;7.42;100.00;97508.38;5051628;28;20543;-79
2023/12/21 01:44:54;;;;;;;0.70;0.70;;;7.00;99.90;;;7.44;100.00;97503.78;5050660;28;20559;-78
2023/12/21 01:47:23;;;;;;;0.90;0.70;;;7.00;99.90;;;7.43;100.00;97487.38;5052330;28;20468;-78
2023/12/21 01:49:52;;;;;;;0.80;0.70;;;7.00;99.90;;;7.41;100.00;97489.38;5053938;28;20469;-79
2023/12/21 01:52:22;;;;;;;0.80;0.60;;;7.10;99.90;;;7.43;100.00;97482.16;5052995;28;20537;-78
2023/12/21 01:54:51;;;;;;;1.47;0.70;;;7.10;99.90;;;7.45;100.00;97479.41;5053898;28;20532;-78
2023/12/21 01:57:21;;;;;;;0.80;0.60;;;7.10;99.90;;;7.44;100.00;97481.19;5052528;28;20472;-78
2023/12/21 01:59:51;;;;;;;0.70;0.60;;;7.10;99.90;;;7.47;100.00;97478.22;5053795;28;20469;-78
2023/12/21 02:02:19;;;;;;;1.47;0.70;;;7.10;99.90;;;7.44;100.00;97478.59;5051786;28;20465;-78
2023/12/21 02:04:48;;;;;;;0.70;0.60;;;7.10;99.90;;;7.46;100.00;97468.81;5053930;28;20464;-78
2023/12/21 02:07:19;;;;;;;0.70;0.60;;;7.00;99.90;;;7.47;100.00;97457.41;5052727;28;20473;-78
2023/12/21 02:09:47;;;;;;;0.80;0.70;;;7.10;99.90;;;7.48;100.00;97459.03;5052873;28;20483;-78
2023/12/21 02:12:16;;;;;;;2.93;0.70;;;7.10;99.90;;;7.49;100.00;97452.03;5052152;28;21070;-78
2023/12/21 02:14:45;;;;;;;1.40;0.70;;;7.10;99.90;;;7.51;100.00;97447.47;5054201;28;20500;-78
2023/12/21 02:17:19;;;;;;;0.70;0.70;;;7.00;99.90;;;7.49;100.00;97444.25;5053972;28;20473;-78
2023/12/21 02:19:51;;;;;;;0.70;0.60;;;7.20;99.90;;;7.50;100.00;97431.03;5051812;28;20453;-78
2023/12/21 02:22:23;;;;;;;0.70;0.60;;;7.20;99.90;;;7.53;100.00;97420.25;5051043;28;20988;-78
2023/12/21 02:24:53;;;;;;;1.27;0.70;;;7.10;99.90;;;7.56;100.00;97411.31;5052821;28;20503;-78
2023/12/21 02:27:22;;;;;;;3.13;0.60;;;7.20;99.90;;;7.56;100.00;97406.09;5052261;28;20480;-78
2023/12/21 02:29:50;;;;;;;0.70;0.60;;;7.10;99.90;;;7.56;100.00;97399.13;5051922;28;20465;-79
2023/12/21 02:32:19;;;;;;;0.80;0.70;;;7.20;99.90;;;7.59;100.00;97396.13;5053699;28;20460;-78
2023/12/21 02:34:47;;;;;;;0.80;0.70;;;7.20;99.90;;;7.63;100.00;97385.34;5051172;28;20487;-78
2023/12/21 02:37:16;;;;;;;1.03;0.80;;;7.20;99.90;;;7.62;100.00;97397.56;5052572;28;20540;-78
2023/12/21 02:39:44;;;;;;;0.70;0.70;;;7.20;99.90;;;7.62;100.00;97402.75;5053279;28;20468;-79
2023/12/21 02:42:14;;;;;;;0.80;0.70;;;7.30;99.90;;;7.62;100.00;97399.34;5053427;28;20464;-78
2023/12/21 02:44:43;;;;;;;3.00;0.70;;;7.30;99.90;;;7.63;100.00;97400.97;5054302;28;20971;-78
2023/12/21 02:47:11;;;;;;;0.90;0.70;;;7.30;99.90;;;7.63;100.00;97386.16;5052980;28;20573;-79
2023/12/21 02:49:40;;;;;;;0.70;0.60;;;7.30;99.90;;;7.64;100.00;97400.78;5055082;28;20465;-78
2023/12/21 02:52:08;;;;;;;0.70;0.60;;;7.30;99.90;;;7.65;100.00;97396.38;5052725;28;20464;-78
2023/12/21 02:54:37;;;;;;;1.10;0.70;;;7.20;99.90;;;7.67;100.00;97384.00;5053491;28;21463;-78
2023/12/21 02:57:06;;;;;;;1.10;0.80;;;7.30;99.90;;;7.68;100.00;97391.59;5052480;28;20557;-78
2023/12/21 02:59:35;;;;;;;1.20;0.80;;;7.30;99.90;;;7.67;100.00;97379.56;5051539;28;20494;-78
2023/12/21 03:02:04;;;;;;;0.70;0.60;;;7.30;99.90;;;7.68;100.00;97365.59;5049891;28;20457;-78
2023/12/21 03:04:33;;;;;;;0.70;0.70;;;7.30;99.90;;;7.70;100.00;97355.00;5051507;28;20566;-78
2023/12/21 03:07:02;;;;;;;0.70;0.60;;;7.30;99.90;;;7.72;100.00;97360.81;5054544;28;20456;-78
2023/12/21 03:09:31;;;;;;;1.10;0.83;;;7.40;99.90;;;7.71;100.00;97359.19;5054875;28;20464;-78
2023/12/21 03:12:00;;;;;;;0.70;0.60;;;7.30;99.90;;;7.74;100.00;97351.06;5054826;28;20472;-78
2023/12/21 03:14:28;;;;;;;0.80;0.70;;;7.30;99.90;;;7.73;100.00;97365.84;5055967;28;21022;-78
2023/12/21 03:16:58;;;;;;;0.70;0.60;;;7.30;99.90;;;7.73;100.00;97357.25;5054745;28;20461;-78
2023/12/21 03:19:26;;;;;;;1.00;0.63;;;7.30;99.90;;;7.74;100.00;97364.84;5056336;28;20471;-78
2023/12/21 03:21:55;;;;;;;1.10;0.63;;;7.30;99.90;;;7.76;100.00;97360.28;5056089;28;20877;-78
2023/12/21 03:24:24;;;;;;;0.70;0.60;;;7.40;99.90;;;7.77;100.00;97355.88;5057567;28;21127;-78
2023/12/21 03:26:52;;;;;;;0.70;0.60;;;7.40;99.90;;;7.77;100.00;97359.28;5053539;28;20473;-78
2023/12/21 03:29:21;;;;;;;0.70;0.63;;;7.40;99.90;;;7.76;100.00;97372.47;5053691;28;20457;-78
2023/12/21 03:31:50;;;;;;;1.03;0.80;;;7.40;99.90;;;7.79;100.00;97356.50;5056958;28;20461;-79
2023/12/21 03:34:20;;;;;;;1.07;0.80;;;7.40;99.90;;;7.81;100.00;97339.69;5053440;28;20477;-78
2023/12/21 03:36:49;;;;;;;1.00;0.70;;;7.40;99.90;;;7.80;100.00;97322.47;5054619;28;20465;-79
2023/12/21 03:39:17;;;;;;;0.83;0.80;;;7.40;99.90;;;7.81;100.00;97310.28;5056463;28;20472;-78
2023/12/21 03:41:46;;;;;;;1.07;0.60;;;7.30;99.90;;;7.81;100.00;97312.88;5053555;28;20476;-78
2023/12/21 03:44:14;;;;;;;2.90;0.80;;;7.40;99.90;;;7.81;100.00;97310.28;5054699;28;20465;-78
2023/12/21 03:46:43;;;;;;;0.70;0.60;;;7.30;99.90;;;7.84;100.00;97296.88;5057123;28;20495;-78
2023/12/21 03:49:11;;;;;;;0.90;0.80;;;7.40;99.90;;;7.85;100.00;97299.28;5055106;28;20469;-78
2023/12/21 03:51:41;;;;;;;0.90;0.70;;;7.40;99.90;;;7.84;100.00;97299.50;5055745;28;20454;-79
2023/12/21 03:54:10;;;;;;;0.90;0.70;;;7.50;99.90;;;7.84;100.00;97297.69;5055752;28;20464;-78
2023/12/21 03:56:39;;;;;;;0.70;0.60;;;7.50;99.90;;;7.87;100.00;97299.09;5056336;28;20492;-78
2023/12/21 03:59:08;;;;;;;0.70;0.60;;;7.50;99.90;;;7.85;100.00;97286.28;5054234;28;21125;-78
2023/12/21 04:01:36;;;;;;;0.73;0.63;;;7.50;99.90;;;7.85;100.00;97293.25;5052291;28;20540;-78
2023/12/21 04:04:05;;;;;;;5.50;0.70;;;7.50;99.90;;;7.82;100.00;97278.84;5053731;28;20465;-78
2023/12/21 04:06:33;;;;;;;0.70;0.70;;;7.60;99.90;;;7.83;100.00;97283.06;5055751;28;20833;-78
2023/12/21 04:09:03;;;;;;;3.23;0.80;;;7.50;99.90;;;7.82;100.00;97286.66;5054863;28;20814;-79
2023/12/21 04:11:32;;;;;;;1.10;0.73;;;7.50;99.90;;;7.81;100.00;97284.25;5055806;28;20468;-78
2023/12/21 04:14:00;;;;;;;0.70;0.60;;;7.40;99.90;;;7.84;100.00;97271.66;5052975;28;20940;-79
2023/12/21 04:16:29;;;;;;;0.70;0.60;;;7.40;99.90;;;7.89;100.00;97268.47;5053651;28;21032;-78
2023/12/21 04:18:58;;;;;;;0.70;0.60;;;7.40;99.90;;;7.86;100.00;97261.84;5052984;28;20460;-79
2023/12/21 04:21:27;;;;;;;0.70;0.60;;;7.50;99.90;;;7.85;100.00;97262.03;5053409;28;20511;-78
2023/12/21 04:23:56;;;;;;;0.93;0.80;;;7.50;99.90;;;7.85;100.00;97257.63;5055071;28;20833;-78
2023/12/21 04:26:25;;;;;;;0.87;0.70;;;7.60;99.90;;;7.87;100.00;97254.84;5055194;28;20460;-78
2023/12/21 04:28:54;;;;;;;0.70;0.70;;;7.50;99.90;;;7.86;100.00;97237.63;5056880;28;20609;-78
2023/12/21 04:31:24;;;;;;;4.63;0.70;;;7.50;99.90;;;7.89;100.00;97222.44;5054861;28;20458;-78
2023/12/21 04:33:53;;;;;;;0.70;0.60;;;7.50;99.90;;;7.88;100.00;97213.00;5056150;28;20464;-78
2023/12/21 04:36:22;;;;;;;0.70;0.60;;;7.60;99.90;;;7.86;100.00;97196.00;5053354;28;20588;-78
2023/12/21 04:38:55;;;;;;;0.90;0.60;;;7.50;99.90;;;7.85;100.00;97210.78;5055215;28;20499;-78
2023/12/21 04:41:25;;;;;;;0.70;0.60;;;7.50;99.90;;;7.88;100.00;97199.22;5052636;28;20532;-78
2023/12/21 04:43:54;;;;;;;0.80;0.70;;;7.50;99.90;;;7.89;100.00;97193.81;5053453;28;21086;-78
2023/12/21 04:46:22;;;;;;;0.80;0.73;;;7.40;99.90;;;7.90;100.00;97198.03;5052723;28;20540;-78
2023/12/21 04:48:51;;;;;;;0.73;0.70;;;7.50;99.90;;;7.89;100.00;97195.59;5052539;28;20465;-78
2023/12/21 04:51:19;;;;;;;14.97;7.50;;;7.60;99.90;;;7.90;100.00;97197.22;5051327;28;21071;-79
2023/12/21 04:53:48;;;;;;;0.90;0.80;;;7.60;99.90;;;7.90;100.00;97208.44;5049452;28;20461;-77
2023/12/21 04:56:16;;;;;;;0.90;0.60;;;7.60;99.90;;;7.90;100.00;97212.84;5050255;28;20515;-78
2023/12/21 04:58:46;;;;;;;3.83;0.70;;;7.60;99.90;;;7.90;100.00;97198.03;5049303;28;20506;-78
2023/12/21 05:01:15;;;;;;;0.70;0.60;;;7.50;99.90;;;7.91;100.00;97194.41;5051887;28;20477;-77
2023/12/21 05:03:43;;;;;;;5.03;2.60;;;7.60;99.90;;;7.91;100.00;97178.78;5052290;28;20465;-78
2023/12/21 05:06:12;;;;;;;0.70;0.60;;;7.50;99.90;;;7.95;100.00;97181.81;5048145;28;20548;-78
2023/12/21 05:08:40;;;;;;;1.03;0.80;;;7.60;99.90;;;7.95;100.00;97174.81;5051277;28;20547;-78
2023/12/21 05:11:09;;;;;;;0.80;0.70;;;7.60;99.90;;;7.94;100.00;97177.63;5047547;28;25817;-79
2023/12/21 05:13:37;;;;;;;0.70;0.60;;;7.60;99.90;;;7.93;100.00;97166.41;5054158;28;20500;-76
2023/12/21 05:16:08;;;;;;;1.00;0.80;;;7.50;99.90;;;7.96;100.00;97167.81;5050467;28;20499;-79
2023/12/21 05:18:37;;;;;;;0.77;0.63;;;7.50;99.90;;;7.97;100.00;97172.03;5050410;28;21267;-79
2023/12/21 05:21:10;;;;;;;0.80;0.60;;;7.50;99.90;;;8.00;100.00;97163.84;5050375;28;20463;-79
2023/12/21 05:23:38;;;;;;;0.70;0.60;;;7.60;99.90;;;7.98;100.00;97143.19;5050008;28;20469;-78
2023/12/21 05:26:12;;;;;;;0.70;0.60;;;7.70;99.90;;;7.97;100.00;97133.00;5051144;28;20467;-78
2023/12/21 05:28:42;;;;;;;0.70;0.70;;;7.50;99.90;;;7.99;100.00;97141.41;5052162;28;20536;-78
2023/12/21 05:31:13;;;;;;;0.70;0.70;;;7.60;99.90;;;7.97;100.00;97136.41;5049500;28;20475;-78
2023/12/21 05:33:41;;;;;;;0.77;0.73;;;7.60;99.90;;;7.98;100.00;97124.19;5047235;28;20463;-78
2023/12/21 05:36:21;;;;;;;0.80;0.80;;;7.60;99.90;;;7.99;100.00;97125.78;5050788;28;20577;-78
2023/12/21 05:38:50;;;;;;;0.70;0.67;;;7.60;99.90;;;8.00;100.00;97115.19;5051968;28;20451;-78
2023/12/21 05:41:19;;;;;;;0.70;0.70;;;7.60;99.90;;;8.01;100.00;97118.59;5050069;28;20472;-78
2023/12/21 05:43:51;;;;;;;0.70;0.60;;;7.60;99.90;;;8.01;100.00;97110.78;5048295;28;20457;-78
2023/12/21 05:46:22;;;;;;;0.70;0.70;;;7.70;99.90;;;8.00;100.00;97109.16;5047275;28;20507;-82
2023/12/21 05:48:50;;;;;;;1.90;0.70;;;7.70;99.90;;;8.00;100.00;97103.97;5049683;28;20835;-78
2023/12/21 05:51:19;;;;;;;1.13;0.60;;;7.70;99.90;;;8.01;100.00;97101.19;5050328;28;20549;-78
2023/12/21 05:53:47;;;;;;;0.90;0.70;;;7.70;99.90;;;8.02;100.00;97104.56;5049238;28;20466;-78
2023/12/21 05:56:16;;;;;;;1.00;0.70;;;7.70;99.90;;;8.04;100.00;97099.97;5050708;28;20499;-78
2023/12/21 05:58:45;;;;;;;1.00;0.90;;;7.70;99.90;;;8.04;100.00;97100.78;5048365;28;20975;-77
2023/12/21 06:01:13;;;;;;;0.70;0.70;;;7.70;99.90;;;8.06;100.00;97097.97;5050814;28;20890;-78
2023/12/21 06:03:43;;;;;;;0.70;0.63;;;7.70;99.90;;;8.04;100.00;97081.75;5051869;28;20479;-77
2023/12/21 06:06:13;;;;;;;0.80;0.70;;;7.70;99.90;;;8.08;100.00;97090.78;5051811;28;20567;-77
2023/12/21 06:08:41;;;;;;;0.70;0.70;;;7.70;99.90;;;8.06;100.00;97105.78;5051289;28;20489;-78
2023/12/21 06:11:10;;;;;;;0.80;0.77;;;7.70;99.90;;;8.06;100.00;97100.56;5051940;28;20469;-78
2023/12/21 06:13:39;;;;;;;0.80;0.80;;;7.70;99.90;;;8.07;100.00;97110.00;5051480;28;20456;-78
2023/12/21 06:16:11;;;;;;;0.70;0.70;;;7.70;99.90;;;8.06;100.00;97100.56;5051152;28;20496;-78
2023/12/21 06:18:42;;;;;;;0.70;0.70;;;7.60;99.90;;;8.09;100.00;97102.78;5053972;28;20984;-79
2023/12/21 06:21:11;;;;;;;0.70;0.70;;;7.70;99.90;;;8.10;100.00;97100.00;5053536;28;21084;-78
2023/12/21 06:23:40;;;;;;;0.70;0.60;;;7.70;99.90;;;8.11;100.00;97085.19;5054122;28;20453;-77
2023/12/21 06:26:08;;;;;;;0.70;0.60;;;7.70;99.90;;;8.12;100.00;97076.38;5051418;28;20475;-78
2023/12/21 06:28:37;;;;;;;0.93;0.70;;;7.80;99.90;;;8.16;100.00;97061.94;5050143;28;20462;-77
2023/12/21 06:31:06;;;;;;;1.27;0.70;;;7.80;99.90;;;8.17;100.00;97049.75;5053030;28;20472;-78
2023/12/21 06:33:35;;;;;;;0.80;0.60;;;7.80;99.90;;;8.17;100.00;97036.72;5051708;28;20963;-78
2023/12/21 06:36:05;;;;;;;0.70;0.60;;;7.80;99.90;;;8.13;100.00;97041.53;5049288;28;20465;-77
2023/12/21 06:38:34;;;;;;;0.80;0.70;;;7.90;99.90;;;8.14;100.00;97026.72;5050428;28;20846;-78
2023/12/21 06:41:02;;;;;;;0.80;0.67;;;7.80;99.90;;;8.16;100.00;97020.28;5050488;28;20477;-78
2023/12/21 06:43:31;;;;;;;0.80;0.70;;;7.80;99.90;;;8.15;100.00;97010.91;5055986;28;20516;-77
2023/12/21 06:46:01;;;;;;;0.70;0.70;;;7.80;99.90;;;8.15;100.00;97013.50;5054921;28;20456;-77
2023/12/21 06:48:30;;;;;;;1.13;0.70;;;7.80;99.90;;;8.15;100.00;97010.91;5054874;28;20970;-77
2023/12/21 06:50:58;;;;;;;0.70;0.70;;;7.80;99.90;;;8.15;100.00;97013.50;5053397;28;20471;-78
2023/12/21 06:53:28;;;;;;;1.03;0.60;;;7.80;99.90;;;8.15;100.00;97008.28;5055470;28;20468;-78
2023/12/21 06:55:57;;;;;;;0.80;0.70;;;7.80;99.90;;;8.17;100.00;97006.28;5053630;28;21145;-78
2023/12/21 06:58:45;;;;;;;1.00;0.60;;;7.80;99.90;;;8.17;100.00;96990.66;5052035;28;20603;-78
2023/12/21 07:01:14;;;;;;;0.80;0.60;;;7.80;99.90;;;8.15;100.00;96995.28;5051332;28;20488;-78
2023/12/21 07:03:42;;;;;;;1.90;1.10;;;7.90;99.90;;;8.17;100.00;97001.06;5054430;28;20471;-78
2023/12/21 07:06:11;;;;;;;0.70;0.60;;;7.80;99.90;;;8.18;100.00;97010.50;5053225;28;20460;-79
2023/12/21 07:08:55;;;;;;;0.80;0.70;;;7.90;99.90;;;8.21;100.00;97017.09;5114112;27;20578;-79
2023/12/21 07:11:24;;;;;;;1.00;0.80;;;7.90;99.90;;;8.22;100.00;97009.13;5097473;28;20879;-79
2023/12/21 07:13:52;;;;;;;0.80;0.60;;;7.90;99.90;;;8.23;100.00;97021.09;5096335;28;20483;-79
2023/12/21 07:16:23;;;;;;;0.70;0.60;;;7.80;99.90;;;8.25;100.00;97013.13;5092458;28;20541;-80
2023/12/21 07:18:51;;;;;;;0.70;0.60;;;7.90;99.90;;;8.22;100.00;97014.31;5093592;28;20462;-79
2023/12/21 07:21:20;;;;;;;0.70;0.60;;;7.90;99.90;;;8.25;100.00;97021.72;5095081;28;20486;-77
2023/12/21 07:23:48;;;;;;;2.13;0.93;;;7.90;99.90;;;8.23;100.00;97005.50;5095036;28;20464;-79
2023/12/21 07:26:18;;;;;;;0.70;0.70;;;7.90;99.90;;;8.28;100.00;97003.13;5041659;28;20476;-80
2023/12/21 07:28:47;;;;;;;0.80;0.73;;;7.90;99.90;;;8.28;100.00;96995.31;5064869;28;20503;-80
2023/12/21 07:31:17;;;;;;;0.90;0.70;;;7.90;99.90;;;8.30;100.00;96990.72;5059263;28;20456;-80
2023/12/21 07:33:45;;;;;;;0.80;0.73;;;7.90;99.90;;;8.27;100.00;96996.28;5055970;28;20461;-80
2023/12/21 07:36:16;;;;;;;0.80;0.70;;;8.00;99.90;;;8.28;100.00;96984.06;5060375;28;20479;-79
2023/12/21 07:38:44;;;;;;;0.70;0.70;;;7.90;99.90;;;8.32;100.00;96999.13;5056932;28;20518;-80
2023/12/21 07:41:13;;;;;;;0.80;0.80;;;7.90;99.90;;;8.33;100.00;96987.69;5054027;28;20464;-80
2023/12/21 07:43:44;;;;;;;1.00;0.90;;;8.00;99.90;;;8.33;100.00;96987.69;5054352;28;20471;-80
2023/12/21 07:46:14;;;;;;;5.60;0.80;;;8.00;99.90;;;8.34;100.00;96976.28;5055019;28;20838;-80
2023/12/21 07:48:43;;;;;;;0.80;0.70;;;8.00;99.90;;;8.36;100.00;96974.31;5062676;28;20513;-77
2023/12/21 07:51:11;;;;;;;0.70;0.70;;;7.90;99.90;;;8.34;100.00;96965.88;5059242;28;20460;-80
2023/12/21 07:53:40;;;;;;;0.70;0.70;;;8.00;99.90;;;8.34;100.00;96955.44;5061166;28;20473;-81
2023/12/21 07:56:09;;;;;;;0.90;0.70;;;8.00;99.90;;;8.38;100.00;96951.47;5056916;28;20952;-80
2023/12/21 07:58:38;;;;;;;0.80;0.70;;;8.00;99.90;;;8.36;100.00;96979.50;5061689;28;20962;-80
2023/12/21 08:01:08;;;;;;;0.80;0.70;;;8.10;99.90;;;8.38;100.00;96974.09;5052280;28;20985;-79
2023/12/21 08:03:36;;;;;;;0.70;0.60;;;8.10;99.90;;;8.39;100.00;96983.53;5060750;28;20456;-79
2023/12/21 08:06:08;;;;;;;0.70;0.60;;;8.10;99.90;;;8.37;100.00;96973.28;5059564;28;20554;-79
2023/12/21 08:08:37;;;;;;;0.80;0.70;;;8.10;99.90;;;8.40;100.00;96980.69;5055430;28;20503;-79
2023/12/21 08:11:16;;;;;;;0.70;0.70;;;8.00;99.90;;;8.36;100.00;96979.50;5062075;28;20453;-79
2023/12/21 08:13:44;;;;;;;0.70;0.60;;;8.10;99.90;;;8.39;100.00;96979.13;5060963;28;20471;-79
2023/12/21 08:16:14;;;;;;;5.03;1.00;;;8.10;99.90;;;8.40;100.00;96979.91;5056078;28;21270;-78
2023/12/21 08:18:44;;;;;;;0.90;0.70;;;8.00;99.90;;;8.41;100.00;96955.44;5053319;28;21058;-79
2023/12/21 08:21:13;;;;;;;1.10;0.80;;;8.00;99.90;;;8.40;100.00;96954.66;5049180;28;20464;-79
2023/12/21 08:23:42;;;;;;;2.50;0.70;;;8.10;99.90;;;8.41;100.00;96955.44;5046244;28;20465;-78
2023/12/21 08:26:11;;;;;;;0.90;0.70;;;8.10;99.90;;;8.41;100.00;96977.09;5045317;28;20553;-79
2023/12/21 08:28:39;;;;;;;0.80;0.70;;;8.00;99.90;;;8.43;100.00;96975.13;5047435;28;20550;-79
2023/12/21 08:31:08;;;;;;;0.80;0.80;;;8.10;99.90;;;8.44;100.00;96949.84;5043652;28;20832;-80
2023/12/21 08:33:38;;;;;;;0.90;0.80;;;8.10;99.90;;;8.49;100.00;96944.84;5045990;28;21269;-80
2023/12/21 08:36:08;;;;;;;1.00;0.90;;;8.10;99.90;;;8.50;100.00;96938.63;5048159;28;20472;-79
2023/12/21 08:38:37;;;;;;;1.80;0.60;;;8.10;99.90;;;8.51;100.00;96946.25;5047212;28;20466;-80
2023/12/21 08:41:09;;;;;;;0.80;0.60;;;8.10;99.90;;;8.50;100.00;96952.44;5049100;28;20973;-80
2023/12/21 08:43:37;;;;;;;0.80;0.70;;;8.00;99.90;;;8.52;100.00;96945.25;5050131;28;20462;-80
2023/12/21 08:46:06;;;;;;;1.00;0.70;;;8.10;99.90;;;8.55;100.00;96920.59;5048729;28;20927;-80
2023/12/21 08:48:35;;;;;;;0.80;0.77;;;8.10;99.90;;;8.57;100.00;96913.38;5047527;28;20591;-79
2023/12/21 08:51:05;;;;;;;0.80;0.60;;;8.20;99.90;;;8.61;100.00;96919.78;5048087;28;20455;-79
2023/12/21 08:53:34;;;;;;;0.70;0.60;;;8.20;99.90;;;8.62;100.00;96899.72;5048738;28;20453;-80
2023/12/21 08:56:04;;;;;;;2.30;0.70;;;8.20;99.90;;;8.59;100.00;96896.53;5047854;28;20461;-79
2023/12/21 08:58:33;;;;;;;0.80;0.70;;;8.20;99.90;;;8.63;100.00;96880.50;5050190;28;20492;-79
2023/12/21 09:01:01;;;;;;;0.80;0.70;;;8.20;99.90;;;8.61;100.00;96851.25;5048119;28;20457;-80
2023/12/21 09:03:30;;;;;;;1.30;0.70;;;8.20;99.90;;;8.64;100.00;96863.88;5047406;28;20497;-80
2023/12/21 09:05:58;;;;;;;1.00;0.80;;;8.20;99.90;;;8.65;100.00;96842.00;5047228;28;20552;-80
2023/12/21 09:08:28;;;;;;;0.70;0.70;;;8.20;99.90;;;8.66;100.00;96851.41;5047363;28;20497;-80
2023/12/21 09:10:57;;;;;;;0.90;0.60;;;8.30;99.90;;;8.67;100.00;96856.44;5047580;28;20457;-79
2023/12/21 09:13:25;;;;;;;0.87;0.70;;;8.30;99.90;;;8.68;100.00;96855.41;5048666;28;20526;-80
2023/12/21 09:15:54;;;;;;;0.70;0.60;;;8.30;99.90;;;8.71;100.00;96834.16;5046565;28;20491;-80
2023/12/21 09:18:22;;;;;;;0.80;0.80;;;8.30;99.90;;;8.73;100.00;96836.56;5048405;28;20464;-80
2023/12/21 09:20:51;;;;;;;0.90;0.70;;;8.30;99.90;;;8.72;100.00;96834.97;5048241;28;20464;-80
2023/12/21 09:23:19;;;;;;;0.70;0.60;;;8.40;99.90;;;8.74;100.00;96854.63;5047713;28;20835;-80
2023/12/21 09:25:49;;;;;;;0.70;0.70;;;8.40;99.90;;;8.75;100.00;96837.16;5047018;28;20480;-80
2023/12/21 09:28:22;;;;;;;0.70;0.60;;;8.40;99.90;;;8.72;100.00;96833.16;5047260;28;20584;-80
2023/12/21 09:30:50;;;;;;;0.80;0.63;;;8.40;99.90;;;8.76;100.00;96844.78;5045844;28;20465;-80
2023/12/21 09:33:19;;;;;;;0.80;0.70;;;8.40;99.90;;;8.80;100.00;96838.16;5046064;28;20512;-80
2023/12/21 09:35:55;;;;;;;0.70;0.70;;;8.40;99.90;;;8.84;100.00;96821.09;5045780;28;20509;-79
2023/12/21 09:38:23;;;;;;;1.43;0.80;;;8.40;99.90;;;8.86;100.00;96819.09;5046706;28;20468;-81
2023/12/21 09:40:53;;;;;;;0.80;0.60;;;8.40;99.90;;;8.87;100.00;96799.84;5044755;28;20493;-79
2023/12/21 09:43:23;;;;;;;1.03;0.70;;;8.50;99.90;;;8.90;100.00;96793.41;5047123;28;20951;-80
2023/12/21 09:45:54;;;;;;;5.40;0.70;;;8.50;99.90;;;8.93;100.00;96777.34;5046918;28;20467;-80
2023/12/21 09:48:25;;;;;;;0.80;0.60;;;8.50;99.90;;;8.94;100.00;96791.97;5046750;28;20527;-79
2023/12/21 09:50:56;;;;;;;0.80;0.70;;;8.60;99.90;;;8.94;100.00;96769.31;5045670;28;20511;-78
2023/12/21 09:53:28;;;;;;;1.57;1.13;;;8.60;99.90;;;8.97;100.00;96792.38;5047609;28;20487;-78
2023/12/21 09:56:01;;;;;;;0.80;0.70;;;8.60;99.90;;;9.01;100.00;96758.88;5047486;28;20465;-78
2023/12/21 09:58:32;;;;;;;0.70;0.60;;;8.60;99.90;;;9.03;100.00;96746.41;5045232;28;20463;-78
2023/12/21 10:01:01;;;;;;;0.70;0.60;;;8.60;99.90;;;9.07;100.00;96740.56;5046370;28;20472;-78
2023/12/21 10:03:29;;;;;;;0.70;0.60;;;8.60;99.90;;;9.11;100.00;96738.34;5044558;28;20503;-78
2023/12/21 10:05:59;;;;;;;0.93;0.60;;;8.70;99.90;;;9.15;100.00;96749.97;5046188;28;20461;-78
2023/12/21 10:08:27;;;;;;;0.70;0.70;;;8.80;99.90;;;9.17;100.00;96752.34;5047725;28;20927;-78
2023/12/21 10:10:57;;;;;;;1.30;0.70;;;8.70;99.90;;;9.20;100.00;96731.84;5043216;28;20518;-80
2023/12/21 10:13:26;;;;;;;1.00;0.70;;;8.80;99.90;;;9.21;100.00;96728.25;5045626;28;20449;-80
2023/12/21 10:15:59;;;;;;;0.70;0.70;;;8.80;99.90;;;9.26;100.00;96740.66;5047755;28;20572;-80
2023/12/21 10:18:27;;;;;;;0.70;0.60;;;8.90;99.90;;;9.25;100.00;96739.88;5046478;28;20453;-79
2023/12/21 10:20:56;;;;;;;0.80;0.60;;;8.90;99.90;;;9.29;100.00;96735.81;5047212;28;20471;-80
2023/12/21 10:23:27;;;;;;;2.60;0.60;;;8.90;99.90;;;9.31;100.00;96712.13;5043545;28;20464;-79
2023/12/21 10:25:58;;;;;;;0.70;0.60;;;8.90;99.90;;;9.32;100.00;96714.53;5041937;28;20457;-79
2023/12/21 10:28:27;;;;;;;0.93;0.60;;;9.00;99.90;;;9.33;100.00;96710.13;5043011;28;20758;-80
2023/12/21 10:30:58;;;;;;;0.90;0.70;;;8.80;99.90;;;9.35;100.00;96695.84;5046049;28;20500;-80
2023/12/21 10:33:27;;;;;;;0.83;0.70;;;9.00;99.90;;;9.36;100.00;96673.97;5044885;28;20454;-79